This is the latest recevied weather packets stored in our database for station/object N5WAY-13. If no packets are shown the sender has not sent any weather packets the latest 10 day(s).
| Time | Temp. | Humidity | Pressure | Rain* | Wind** | Luminosity | Snow |
|---|---|---|---|---|---|---|---|
| 1777876517 | 15.56° C | 52% | 1015.5 hPa | 0 mm | - | 0 W/m² | - |
| 1777872338 | 16.11° C | 52% | 1015.4 hPa | 0 mm | - | 0 W/m² | - |
| 1777859118 | 21.11° C | 30% | 1014.2 hPa | 0 mm | - | 11 W/m² | - |
| 1777857318 | 21.11° C | 28% | 1014.1 hPa | 0 mm | - | 28 W/m² | - |
| 1777850716 | 23.33° C | 22% | 1014.5 hPa | 0 mm | - | 487 W/m² | - |
| 1777842916 | 22.22° C | 26% | 1017 hPa | 0 mm | - | 935 W/m² | - |
| 1777836317 | 19.44° C | 33% | 1019.3 hPa | 0 mm | - | 1126 W/m² | - |
| 1777835117 | 18.89° C | 37% | 1019.6 hPa | 0 mm | - | 1135 W/m² | - |
| 1777833918 | 17.78° C | 37% | 1020.1 hPa | 0 mm | - | 673 W/m² | - |
| 1777830915 | 17.78° C | 40% | 1021 hPa | 0 mm | - | 1065 W/m² | - |
| 1777827316 | 16.67° C | 45% | 1021.8 hPa | 0 mm | - | 745 W/m² | - |
| 1777800317 | 7.78° C | 73% | 1022.4 hPa | 0 mm | - | 0 W/m² | - |
| 1777797317 | 8.89° C | 70% | 1022.5 hPa | 0 mm | - | 0 W/m² | - |
| 1777789516 | 11.67° C | 59% | 1022.7 hPa | 0 mm | - | 0 W/m² | - |
| 1777787117 | 12.22° C | 57% | 1022.5 hPa | 0 mm | - | 0 W/m² | - |
| 1777784717 | 12.78° C | 53% | 1022.4 hPa | 0 mm | - | 0 W/m² | - |
| 1777779916 | 15° C | 43% | 1021.6 hPa | 0 mm | - | 0 W/m² | - |
| 1777778716 | 15° C | 42% | 1021.3 hPa | 0 mm | - | 0 W/m² | - |
| 1777777516 | 15.56° C | 40% | 1020.9 hPa | 0 mm | - | 0 W/m² | - |
| 1777773317 | 17.22° C | 34% | 1019.9 hPa | 0 mm | - | 5 W/m² | - |
| 1777769718 | 18.89° C | 31% | 1019.7 hPa | 0 mm | - | 86 W/m² | - |
| 1777763756 | 20° C | 26% | 1019.7 hPa | 0 mm | - | 524 W/m² | - |
| 1777760737 | 20° C | 28% | 1020 hPa | 0 mm | - | 709 W/m² | - |
| 1777755918 | 18.33° C | 31% | 1021.6 hPa | 0 mm | - | 927 W/m² | - |
| 1777748717 | 16.67° C | 37% | 1023 hPa | 0 mm | - | 1127 W/m² | - |
* Rain latest hour (hover to see other rain measurements)
** Current wind speed in m/s (hover to see current wind gust speed)